Time;durP1;ratioP1;P1;durP2;ratioP2;P2;SDS_P1;SDS_P2;PMS_P1;PMS_P2;Temp;Humidity;BMP_temperature;BMP_pressure;BME280_temperature;BME280_humidity;BME280_pressure;Samples;Min_cycle;Max_cycle;Signal;HPM_P1;HPM_P2
2023/04/05 00:00:44;;;;;;;2.20;1.52;;;10.90;99.90;;;;;;5133800;27;20023;-75
2023/04/05 00:03:10;;;;;;;2.78;1.38;;;10.90;99.90;;;;;;5133433;27;20051;-80
2023/04/05 00:05:36;;;;;;;3.53;1.30;;;10.90;99.90;;;;;;5133402;27;20055;-76
2023/04/05 00:08:07;;;;;;;3.42;1.60;;;10.90;99.90;;;;;;5133627;27;20028;-75
2023/04/05 00:10:33;;;;;;;3.90;1.50;;;10.80;99.90;;;;;;5133347;27;20024;-75
2023/04/05 00:12:59;;;;;;;7.15;1.60;;;10.80;99.90;;;;;;5115480;27;20023;-76
2023/04/05 00:15:26;;;;;;;5.03;1.80;;;10.90;99.90;;;;;;5132381;27;20104;-76
2023/04/05 00:17:55;;;;;;;5.82;1.42;;;10.90;99.90;;;;;;5132721;27;20034;-76
2023/04/05 00:20:21;;;;;;;2.80;1.30;;;10.90;99.90;;;;;;5131845;27;20057;-76
2023/04/05 00:22:49;;;;;;;2.13;1.27;;;10.90;99.90;;;;;;5132503;27;20554;-75
2023/04/05 00:25:16;;;;;;;4.57;1.33;;;10.90;99.90;;;;;;5131948;27;20041;-76
2023/04/05 00:27:45;;;;;;;3.60;1.17;;;10.90;99.90;;;;;;5132300;27;20456;-76
2023/04/05 00:30:11;;;;;;;2.72;1.20;;;10.90;99.90;;;;;;5132374;27;20031;-76
2023/04/05 00:32:37;;;;;;;2.63;0.90;;;10.90;99.90;;;;;;5113821;27;20027;-76
2023/04/05 00:35:03;;;;;;;1.35;0.70;;;11.00;99.90;;;;;;5132363;27;20452;-76
2023/04/05 00:37:28;;;;;;;3.03;1.00;;;10.90;99.90;;;;;;5131713;27;20023;-76
2023/04/05 00:39:56;;;;;;;2.40;0.73;;;10.90;99.90;;;;;;5132574;27;20145;-76
2023/04/05 00:42:22;;;;;;;2.97;0.75;;;11.00;99.90;;;;;;5131999;27;20084;-76
2023/04/05 00:44:48;;;;;;;1.73;0.80;;;11.00;99.90;;;;;;5114157;27;20023;-76
2023/04/05 00:47:13;;;;;;;2.50;0.70;;;11.00;99.90;;;;;;5131822;27;20459;-79
2023/04/05 00:49:40;;;;;;;2.80;0.70;;;11.00;99.90;;;;;;5131791;27;20459;-76
2023/04/05 00:52:06;;;;;;;2.38;0.55;;;11.00;99.90;;;;;;5132324;27;20084;-76
2023/04/05 00:54:32;;;;;;;0.90;0.40;;;11.00;99.90;;;;;;5131550;27;20374;-76
2023/04/05 00:56:58;;;;;;;0.55;0.30;;;11.00;99.90;;;;;;5131689;27;20440;-76
2023/04/05 00:59:25;;;;;;;2.03;0.32;;;11.00;99.90;;;;;;5131417;27;20023;-75
2023/04/05 01:02:00;;;;;;;0.47;0.35;;;11.00;99.90;;;;;;5131770;27;20027;-76
2023/04/05 01:04:29;;;;;;;0.63;0.40;;;11.00;99.90;;;;;;5113089;27;20035;-75
2023/04/05 01:07:02;;;;;;;1.33;0.20;;;11.00;99.90;;;;;;5132209;27;20026;-75
2023/04/05 01:10:06;;;;;;;;;;;11.00;99.90;;;;;;5131921;27;20132;-75
2023/04/05 01:12:32;;;;;;;;;;;11.00;99.90;;;;;;5027653;28;19948;-75
2023/04/05 01:14:58;;;;;;;0.55;0.20;;;11.00;99.90;;;;;;5011673;28;20423;-75
2023/04/05 01:17:35;;;;;;;1.42;0.30;;;11.00;99.90;;;;;;5027514;28;20107;-74
2023/04/05 01:20:24;;;;;;;0.60;0.30;;;11.00;99.90;;;;;;5028083;28;20069;-75
2023/04/05 01:23:18;;;;;;;1.00;0.30;;;11.00;99.90;;;;;;5027860;28;20056;-75
2023/04/05 01:26:02;;;;;;;0.22;0.20;;;11.10;99.90;;;;;;5027991;28;20115;-76
2023/04/05 01:28:49;;;;;;;1.05;0.30;;;11.10;99.90;;;;;;5027547;28;20574;-75
2023/04/05 01:32:01;;;;;;;0.98;0.40;;;11.10;99.90;;;;;;5028147;28;20470;-76
2023/04/05 01:35:00;;;;;;;1.13;0.30;;;11.10;99.90;;;;;;5021881;28;20069;-76
2023/04/05 01:37:31;;;;;;;2.47;0.50;;;11.10;99.90;;;;;;5006247;28;20037;-74
2023/04/05 01:39:58;;;;;;;0.40;0.40;;;11.10;99.90;;;;;;5028079;28;20026;-75
2023/04/05 01:42:25;;;;;;;1.25;0.40;;;11.10;99.90;;;;;;5025252;28;20037;-75
2023/04/05 01:44:55;;;;;;;1.55;0.30;;;11.10;99.90;;;;;;5131196;28;20459;-75
2023/04/05 01:47:21;;;;;;;2.13;0.63;;;11.10;99.90;;;;;;5130807;28;20027;-76
2023/04/05 01:49:47;;;;;;;2.05;0.45;;;11.10;99.90;;;;;;5131541;28;20034;-75
2023/04/05 01:52:13;;;;;;;0.43;0.30;;;11.10;99.90;;;;;;5131388;28;20102;-75
2023/04/05 01:54:39;;;;;;;1.05;0.50;;;11.10;99.90;;;;;;5130334;28;20684;-75
2023/04/05 01:57:05;;;;;;;1.58;0.43;;;11.10;99.90;;;;;;5131383;28;20106;-75
2023/04/05 01:59:31;;;;;;;0.57;0.45;;;11.10;99.90;;;;;;5112524;28;20027;-75
2023/04/05 02:01:56;;;;;;;1.80;0.70;;;11.10;99.90;;;;;;5131143;28;20033;-75
2023/04/05 02:04:22;;;;;;;1.85;0.70;;;11.10;99.90;;;;;;5130731;28;20561;-76
2023/04/05 02:06:48;;;;;;;1.30;0.45;;;11.10;99.90;;;;;;5131220;28;20102;-74
2023/04/05 02:09:14;;;;;;;1.17;0.60;;;11.10;99.90;;;;;;5131248;28;20027;-75
2023/04/05 02:11:39;;;;;;;1.65;0.50;;;11.20;99.90;;;;;;5130414;28;20076;-75
2023/04/05 02:14:05;;;;;;;0.68;0.50;;;11.20;99.90;;;;;;5131231;28;20053;-75
2023/04/05 02:16:33;;;;;;;1.35;0.40;;;11.20;99.90;;;;;;5112174;28;20024;-76
2023/04/05 02:18:59;;;;;;;0.82;0.45;;;11.20;99.90;;;;;;5131152;28;20064;-75
2023/04/05 02:21:25;;;;;;;1.17;0.40;;;11.20;99.90;;;;;;5112426;28;20031;-76
2023/04/05 02:23:54;;;;;;;0.93;0.40;;;11.10;99.90;;;;;;5131417;27;20047;-76
2023/04/05 02:26:20;;;;;;;0.40;0.30;;;11.10;99.90;;;;;;5135623;27;20019;-76
2023/04/05 02:28:46;;;;;;;1.20;0.40;;;11.10;99.90;;;;;;5134979;27;20023;-76
2023/04/05 02:31:13;;;;;;;0.70;0.40;;;11.10;99.90;;;;;;5135198;27;20023;-76
2023/04/05 02:33:39;;;;;;;0.73;0.32;;;11.10;99.90;;;;;;5115817;27;20043;-76
2023/04/05 02:36:08;;;;;;;0.20;0.20;;;11.10;99.90;;;;;;5134878;27;20137;-75
2023/04/05 02:38:34;;;;;;;0.40;0.40;;;11.10;99.90;;;;;;5115520;27;20030;-75
2023/04/05 02:41:00;;;;;;;0.47;0.47;;;11.10;99.90;;;;;;5134451;27;20456;-75
2023/04/05 02:43:26;;;;;;;0.85;0.28;;;11.10;99.90;;;;;;5115598;27;20104;-75
2023/04/05 02:45:51;;;;;;;0.82;0.45;;;11.10;99.90;;;;;;5134569;27;20464;-76
2023/04/05 02:48:17;;;;;;;0.30;0.30;;;11.10;99.90;;;;;;5115883;27;20133;-74
2023/04/05 02:50:47;;;;;;;0.85;0.40;;;11.10;99.90;;;;;;5133810;27;20349;-75
2023/04/05 02:53:13;;;;;;;0.52;0.47;;;11.10;99.90;;;;;;5134498;27;20058;-75
2023/04/05 02:55:41;;;;;;;0.95;0.30;;;11.10;99.90;;;;;;5133677;27;20349;-76
2023/04/05 02:58:07;;;;;;;0.63;0.30;;;11.10;99.90;;;;;;5134097;27;20032;-75
2023/04/05 03:00:33;;;;;;;0.98;0.30;;;11.10;99.90;;;;;;5098183;27;20028;-75
2023/04/05 03:02:58;;;;;;;0.40;0.30;;;11.10;99.90;;;;;;5134008;27;20066;-75
2023/04/05 03:05:24;;;;;;;1.60;0.35;;;11.20;99.90;;;;;;5133524;27;20023;-78
2023/04/05 03:07:51;;;;;;;1.08;0.57;;;11.20;99.90;;;;;;5134071;27;20066;-75
2023/04/05 03:10:17;;;;;;;0.20;0.20;;;11.20;99.90;;;;;;5133976;27;20458;-75
2023/04/05 03:12:47;;;;;;;0.50;0.30;;;11.20;99.90;;;;;;5133508;27;20158;-75
2023/04/05 03:15:13;;;;;;;1.23;0.30;;;11.20;99.90;;;;;;5115447;27;20027;-75
2023/04/05 03:17:42;;;;;;;0.57;0.40;;;11.20;99.90;;;;;;5133471;27;20019;-74
2023/04/05 03:20:09;;;;;;;1.75;0.43;;;11.20;99.90;;;;;;5133423;27;20127;-74
2023/04/05 03:22:35;;;;;;;0.75;0.40;;;11.20;99.90;;;;;;5133012;27;20126;-74
2023/04/05 03:25:02;;;;;;;0.70;0.38;;;11.10;99.90;;;;;;5115008;27;20384;-75
2023/04/05 03:27:28;;;;;;;0.68;0.40;;;11.20;99.90;;;;;;5132604;27;20019;-76
2023/04/05 03:29:54;;;;;;;1.02;0.38;;;11.10;99.90;;;;;;5134257;27;20218;-74
2023/04/05 03:32:20;;;;;;;0.35;0.30;;;11.10;99.90;;;;;;5133738;27;20062;-75
2023/04/05 03:34:45;;;;;;;1.92;0.47;;;11.20;99.90;;;;;;5097325;27;20031;-75
2023/04/05 03:37:11;;;;;;;2.20;0.45;;;11.10;99.90;;;;;;5115066;27;20076;-75
2023/04/05 03:39:37;;;;;;;1.92;0.50;;;11.10;99.90;;;;;;5133134;27;20066;-75
2023/04/05 03:42:03;;;;;;;1.25;0.32;;;11.10;99.90;;;;;;5115040;27;20037;-75
2023/04/05 03:44:29;;;;;;;0.93;0.40;;;11.20;99.90;;;;;;5132338;27;20031;-76
2023/04/05 03:46:55;;;;;;;2.20;0.40;;;11.20;99.90;;;;;;5132993;27;20034;-76
2023/04/05 03:49:20;;;;;;;1.33;0.50;;;11.20;99.90;;;;;;5132984;27;20492;-75
2023/04/05 03:51:46;;;;;;;1.33;0.63;;;11.20;99.90;;;;;;5132192;27;20027;-74
2023/04/05 03:54:12;;;;;;;0.93;0.50;;;11.20;99.90;;;;;;5132658;27;20440;-75
2023/04/05 03:56:38;;;;;;;1.20;0.32;;;11.20;99.90;;;;;;5132230;27;20023;-74
2023/04/05 03:59:03;;;;;;;0.55;0.50;;;11.20;99.90;;;;;;5113996;27;20433;-76
2023/04/05 04:01:30;;;;;;;0.88;0.50;;;11.20;99.90;;;;;;5113915;27;20034;-79
2023/04/05 04:03:56;;;;;;;2.22;0.70;;;11.20;99.90;;;;;;5133140;27;20034;-76
2023/04/05 04:06:25;;;;;;;1.55;0.55;;;11.20;99.90;;;;;;5132762;27;20031;-74
2023/04/05 04:08:51;;;;;;;1.25;0.70;;;11.20;99.90;;;;;;5132013;27;20095;-75
2023/04/05 04:11:17;;;;;;;1.42;0.52;;;11.20;99.90;;;;;;5132680;27;20023;-75
2023/04/05 04:13:43;;;;;;;1.42;0.60;;;11.20;99.90;;;;;;5132028;27;20041;-75
2023/04/05 04:16:09;;;;;;;1.23;0.60;;;11.20;99.90;;;;;;5113666;27;20341;-75
2023/04/05 04:18:34;;;;;;;1.55;0.60;;;11.10;99.90;;;;;;5131922;27;20088;-75
2023/04/05 04:21:06;;;;;;;1.95;0.60;;;11.20;99.90;;;;;;5113764;27;20052;-76
2023/04/05 04:23:37;;;;;;;1.48;0.90;;;11.10;99.90;;;;;;5131744;27;20058;-76
2023/04/05 04:26:03;;;;;;;0.80;0.60;;;11.20;99.90;;;;;;5132390;27;20085;-76
2023/04/05 04:28:33;;;;;;;4.22;0.80;;;11.20;99.90;;;;;;5131823;27;20028;-79
2023/04/05 04:31:03;;;;;;;1.20;0.70;;;11.10;99.90;;;;;;5132528;27;20023;-76
2023/04/05 04:33:29;;;;;;;1.35;0.63;;;11.10;99.90;;;;;;5132340;27;20057;-77
2023/04/05 04:35:55;;;;;;;1.08;0.70;;;11.10;99.90;;;;;;5132082;27;20041;-75
2023/04/05 04:38:24;;;;;;;1.55;0.85;;;11.10;99.90;;;;;;5113958;27;20110;-75
2023/04/05 04:40:52;;;;;;;0.98;0.70;;;11.10;99.90;;;;;;5113245;27;20460;-75
2023/04/05 04:43:25;;;;;;;1.08;0.90;;;11.20;99.90;;;;;;5131829;27;20456;-75
2023/04/05 04:45:53;;;;;;;;;;;11.10;99.90;;;;;;5132074;27;20107;-75
2023/04/05 04:48:20;;;;;;;2.90;0.85;;;11.10;99.90;;;;;;5131422;27;19907;-76
2023/04/05 04:50:48;;;;;;;1.23;1.10;;;11.20;99.90;;;;;;5131319;27;20523;-76
2023/04/05 04:53:16;;;;;;;2.15;0.75;;;11.10;99.90;;;;;;5113630;27;20176;-76
2023/04/05 04:55:43;;;;;;;2.40;0.70;;;11.20;99.90;;;;;;5131541;27;20015;-75
2023/04/05 04:58:10;;;;;;;1.38;0.73;;;11.10;99.90;;;;;;5131887;27;20473;-76
2023/04/05 05:00:40;;;;;;;0.65;0.65;;;11.10;99.90;;;;;;5131205;27;20468;-76
2023/04/05 05:03:07;;;;;;;1.30;1.20;;;11.10;99.90;;;;;;5132092;27;20031;-75
2023/04/05 05:05:33;;;;;;;3.15;1.20;;;11.10;99.90;;;;;;5131818;27;20031;-79
2023/04/05 05:07:59;;;;;;;0.95;0.82;;;11.20;99.90;;;;;;5131456;27;20066;-75
2023/04/05 05:10:24;;;;;;;2.00;1.40;;;11.20;99.90;;;;;;5131971;27;20443;-75
2023/04/05 05:12:50;;;;;;;1.30;1.00;;;11.10;99.90;;;;;;5131312;27;20076;-75
2023/04/05 05:15:16;;;;;;;2.65;1.35;;;11.20;99.90;;;;;;5131401;27;20035;-75
2023/04/05 05:17:43;;;;;;;1.63;1.33;;;11.20;99.90;;;;;;5131309;27;20078;-75
2023/04/05 05:20:10;;;;;;;1.27;0.90;;;11.20;99.90;;;;;;5131668;27;20027;-75
2023/04/05 05:22:39;;;;;;;1.90;0.90;;;11.20;99.90;;;;;;5131305;27;20054;-79
2023/04/05 05:25:07;;;;;;;1.13;0.80;;;11.20;99.90;;;;;;5132143;27;20078;-75
2023/04/05 05:27:33;;;;;;;0.93;0.80;;;11.30;99.90;;;;;;5132044;27;20038;-76
2023/04/05 05:30:00;;;;;;;3.70;1.15;;;11.30;99.90;;;;;;5131641;27;20023;-76
2023/04/05 05:32:25;;;;;;;0.93;0.80;;;11.30;99.90;;;;;;5131525;27;20428;-74
2023/04/05 05:34:51;;;;;;;1.85;0.75;;;11.30;99.90;;;;;;5130773;27;20077;-75
2023/04/05 05:37:17;;;;;;;1.75;0.85;;;11.30;99.90;;;;;;5131285;27;20094;-75
2023/04/05 05:39:45;;;;;;;1.40;0.80;;;11.40;99.90;;;;;;5130802;28;20042;-75
2023/04/05 05:42:11;;;;;;;2.38;0.95;;;11.40;99.90;;;;;;5131065;28;20050;-75
2023/04/05 05:44:37;;;;;;;2.80;0.70;;;11.40;99.90;;;;;;5130784;28;20119;-79
2023/04/05 05:47:03;;;;;;;2.42;0.80;;;11.40;99.90;;;;;;5131357;28;20019;-75
2023/04/05 05:49:30;;;;;;;2.53;0.90;;;11.40;99.90;;;;;;5131018;28;20031;-74
2023/04/05 05:51:56;;;;;;;2.08;0.82;;;11.40;99.90;;;;;;5130661;28;20093;-74
2023/04/05 05:54:21;;;;;;;1.52;0.90;;;11.40;99.90;;;;;;5130856;28;20386;-75
2023/04/05 05:56:47;;;;;;;2.88;0.98;;;11.50;99.90;;;;;;5112038;28;20113;-75
2023/04/05 05:59:13;;;;;;;0.60;0.60;;;11.40;99.90;;;;;;5133783;27;20106;-75
2023/04/05 06:01:41;;;;;;;3.28;0.80;;;11.50;99.90;;;;;;5134922;27;20080;-77
2023/04/05 06:04:07;;;;;;;1.17;0.63;;;11.50;99.90;;;;;;5135175;27;20023;-75
2023/04/05 06:06:34;;;;;;;1.20;0.65;;;11.50;99.90;;;;;;5135246;27;20023;-75
2023/04/05 06:09:00;;;;;;;2.28;0.68;;;11.50;99.90;;;;;;5134643;27;20035;-74
2023/04/05 06:11:25;;;;;;;1.15;0.63;;;11.50;99.90;;;;;;5135266;27;20023;-76
2023/04/05 06:13:53;;;;;;;1.63;1.10;;;11.60;99.90;;;;;;5134920;27;20038;-75
2023/04/05 06:16:22;;;;;;;2.00;0.70;;;11.60;99.90;;;;;;5116560;27;20404;-75
2023/04/05 06:18:48;;;;;;;1.35;0.68;;;11.60;99.90;;;;;;5134742;27;20062;-75
2023/04/05 06:21:14;;;;;;;1.83;0.88;;;11.60;99.90;;;;;;5135356;27;20097;-75
2023/04/05 06:23:41;;;;;;;1.75;0.82;;;11.60;99.90;;;;;;5134596;27;20483;-76
2023/04/05 06:26:19;;;;;;;0.82;0.80;;;11.70;99.90;;;;;;5135170;27;20106;-75
2023/04/05 06:28:48;;;;;;;2.63;0.90;;;11.70;99.90;;;;;;5134405;27;20079;-75
2023/04/05 06:31:16;;;;;;;2.45;1.10;;;11.70;99.90;;;;;;5134282;27;20027;-75
2023/04/05 06:33:45;;;;;;;1.73;0.80;;;11.70;99.90;;;;;;5133560;27;20459;-76
2023/04/05 06:36:10;;;;;;;2.72;0.70;;;11.80;99.90;;;;;;5115902;27;20473;-75
2023/04/05 06:38:36;;;;;;;2.70;0.80;;;11.80;99.90;;;;;;5134279;27;20106;-75
2023/04/05 06:41:02;;;;;;;1.85;0.80;;;11.80;99.90;;;;;;5133678;27;20054;-75
2023/04/05 06:43:28;;;;;;;2.35;1.10;;;11.90;99.90;;;;;;5134195;27;20066;-75
2023/04/05 06:45:58;;;;;;;3.03;1.02;;;12.00;99.90;;;;;;5133219;27;20096;-75
2023/04/05 06:48:24;;;;;;;5.85;2.17;;;12.00;99.90;;;;;;5133845;27;20047;-74
2023/04/05 06:50:59;;;;;;;3.72;2.30;;;12.10;99.90;;;;;;5133559;27;20042;-75
2023/04/05 06:53:26;;;;;;;3.83;1.60;;;12.10;99.90;;;;;;5134065;27;20031;-74
2023/04/05 06:55:57;;;;;;;3.95;1.60;;;12.10;99.90;;;;;;5114660;27;20099;-75
2023/04/05 06:58:25;;;;;;;4.50;1.52;;;12.10;99.90;;;;;;5133727;27;20063;-75
2023/04/05 07:00:51;;;;;;;2.65;1.25;;;12.20;99.90;;;;;;5133062;27;20534;-75
2023/04/05 07:03:17;;;;;;;7.68;1.27;;;12.20;99.90;;;;;;5133623;27;20027;-74
2023/04/05 07:05:53;;;;;;;4.32;1.30;;;12.20;99.90;;;;;;5133468;27;20030;-78
2023/04/05 07:08:20;;;;;;;4.78;1.67;;;12.20;99.90;;;;;;5114869;27;20061;-74
2023/04/05 07:10:46;;;;;;;3.55;1.25;;;12.30;99.90;;;;;;5132334;27;20072;-75
2023/04/05 07:13:12;;;;;;;4.80;1.40;;;12.30;99.90;;;;;;5133426;27;20076;-75
2023/04/05 07:15:38;;;;;;;3.13;1.38;;;12.30;99.90;;;;;;5133386;27;20027;-74
2023/04/05 07:18:04;;;;;;;4.15;1.25;;;12.30;99.90;;;;;;5114435;27;20392;-75
2023/04/05 07:20:30;;;;;;;3.70;1.70;;;12.40;99.90;;;;;;5133685;27;20072;-75
2023/04/05 07:22:57;;;;;;;4.50;1.58;;;12.40;99.90;;;;;;5132934;27;20047;-75
2023/04/05 07:25:23;;;;;;;6.45;2.38;;;12.50;99.90;;;;;;5133297;27;20031;-75
2023/04/05 07:27:49;;;;;;;6.65;2.67;;;12.50;99.90;;;;;;5132669;27;20019;-75
2023/04/05 07:30:14;;;;;;;3.35;1.65;;;12.50;99.90;;;;;;5134037;27;20464;-74
2023/04/05 07:32:40;;;;;;;5.57;1.73;;;12.60;99.90;;;;;;5133466;27;20468;-75
2023/04/05 07:35:07;;;;;;;5.18;1.63;;;12.60;99.90;;;;;;5132670;27;20123;-74
2023/04/05 07:37:32;;;;;;;4.20;1.40;;;12.70;99.90;;;;;;5133193;27;20035;-75
2023/04/05 07:39:58;;;;;;;3.65;1.50;;;12.70;99.90;;;;;;5132878;27;20145;-75
2023/04/05 07:42:24;;;;;;;5.22;1.33;;;12.80;99.90;;;;;;5133071;27;20061;-75
2023/04/05 07:44:50;;;;;;;3.22;1.10;;;12.80;99.90;;;;;;5132712;27;20031;-75
2023/04/05 07:47:16;;;;;;;7.93;1.60;;;12.90;99.90;;;;;;5133300;27;20038;-75
2023/04/05 07:49:42;;;;;;;4.35;1.60;;;12.90;99.90;;;;;;5133075;27;20027;-75
2023/04/05 07:52:07;;;;;;;6.50;1.77;;;12.90;99.90;;;;;;5132256;27;20384;-75
2023/04/05 07:54:33;;;;;;;5.65;1.50;;;13.00;99.90;;;;;;5133036;27;20172;-75
2023/04/05 07:56:59;;;;;;;13.10;1.88;;;13.10;99.90;;;;;;5132835;27;20024;-75
2023/04/05 07:59:26;;;;;;;3.55;1.35;;;13.10;99.90;;;;;;5132899;27;20456;-75
2023/04/05 08:01:52;;;;;;;4.97;1.55;;;13.20;99.90;;;;;;5132206;27;20053;-75
2023/04/05 08:04:19;;;;;;;5.68;1.45;;;13.30;99.90;;;;;;5114801;27;20511;-75
2023/04/05 08:06:46;;;;;;;6.07;1.75;;;13.40;99.90;;;;;;5132517;27;20059;-79
2023/04/05 08:09:11;;;;;;;6.63;1.67;;;13.40;99.90;;;;;;5132544;27;20085;-76
2023/04/05 08:11:37;;;;;;;6.32;1.58;;;13.50;99.90;;;;;;5133142;27;20173;-75
2023/04/05 08:14:03;;;;;;;7.30;1.50;;;13.60;99.90;;;;;;5132088;27;20027;-76
2023/04/05 08:16:29;;;;;;;5.70;1.23;;;13.70;99.90;;;;;;5132484;27;20424;-76
2023/04/05 08:18:54;;;;;;;7.72;1.25;;;13.70;99.90;;;;;;5131871;27;20440;-76
2023/04/05 08:21:22;;;;;;;6.35;1.70;;;13.70;99.90;;;;;;5132098;27;20046;-75
2023/04/05 08:23:48;;;;;;;6.32;1.58;;;13.80;99.90;;;;;;5131761;27;20214;-79
2023/04/05 08:26:15;;;;;;;2.17;1.02;;;13.90;99.90;;;;;;5132608;27;20384;-76
2023/04/05 08:28:41;;;;;;;3.00;1.15;;;13.90;99.90;;;;;;5132303;27;20039;-75
2023/04/05 08:31:06;;;;;;;4.38;1.05;;;13.90;99.90;;;;;;5131746;27;20023;-75
2023/04/05 08:33:32;;;;;;;3.55;1.30;;;13.90;99.90;;;;;;5131754;27;20039;-75
2023/04/05 08:36:06;;;;;;;4.97;1.40;;;14.00;99.90;;;;;;5131781;27;20110;-75
2023/04/05 08:38:32;;;;;;;3.20;1.40;;;13.90;99.90;;;;;;5132023;27;20102;-76
2023/04/05 08:41:16;;;;;;;4.00;1.55;;;13.90;99.90;;;;;;5131386;27;20115;-76
2023/04/05 08:43:56;;;;;;;4.75;1.60;;;13.90;99.90;;;;;;5131858;27;20028;-76
2023/04/05 08:46:23;;;;;;;6.95;2.42;;;13.80;99.90;;;;;;5132275;27;20023;-75
2023/04/05 08:48:49;;;;;;;4.30;1.60;;;13.80;99.90;;;;;;5131998;27;20028;-78
2023/04/05 08:51:20;;;;;;;5.60;2.00;;;13.70;99.90;;;;;;5131942;27;20027;-75
2023/04/05 08:53:47;;;;;;;5.97;1.73;;;13.60;99.90;;;;;;5131833;27;20035;-74
2023/04/05 08:56:17;;;;;;;6.82;1.70;;;13.60;99.90;;;;;;5131471;27;20027;-75
2023/04/05 08:58:52;;;;;;;2.55;1.00;;;13.60;99.90;;;;;;5113629;27;20392;-75
2023/04/05 09:01:19;;;;;;;7.07;1.33;;;13.70;99.90;;;;;;5132124;27;20087;-74
2023/04/05 09:03:47;;;;;;;5.72;1.42;;;13.70;99.90;;;;;;5131326;27;20027;-75
2023/04/05 09:06:14;;;;;;;3.88;1.00;;;13.70;99.90;;;;;;5130792;27;20019;-75
2023/04/05 09:08:40;;;;;;;3.13;1.15;;;13.80;99.90;;;;;;5112995;27;20030;-75
2023/04/05 09:11:06;;;;;;;2.63;1.30;;;13.90;99.90;;;;;;5095621;27;20468;-75
2023/04/05 09:13:31;;;;;;;3.88;1.30;;;14.00;99.90;;;;;;5131240;27;20456;-76
2023/04/05 09:16:01;;;;;;;4.28;1.00;;;14.10;99.90;;;;;;5112474;27;20031;-75
2023/04/05 09:18:26;;;;;;;6.30;1.25;;;14.30;99.90;;;;;;5131419;27;20114;-76
2023/04/05 09:21:03;;;;;;;2.63;1.10;;;14.40;99.90;;;;;;5131394;27;20526;-78
2023/04/05 09:23:29;;;;;;;2.30;1.17;;;14.60;99.90;;;;;;5131370;27;20061;-74
2023/04/05 09:25:55;;;;;;;3.72;1.33;;;14.70;99.90;;;;;;5112493;27;20023;-76
2023/04/05 09:28:21;;;;;;;4.10;1.42;;;14.70;99.90;;;;;;5131512;27;20035;-75
2023/04/05 09:30:47;;;;;;;4.30;1.05;;;14.80;99.90;;;;;;5131683;27;20477;-75
2023/04/05 09:33:17;;;;;;;4.22;1.23;;;14.70;99.90;;;;;;5111776;28;20684;-75
2023/04/05 09:35:43;;;;;;;4.28;1.10;;;14.70;99.90;;;;;;5131123;27;20019;-75
2023/04/05 09:38:09;;;;;;;3.08;0.90;;;14.70;99.90;;;;;;5130773;27;20027;-75
2023/04/05 09:40:50;;;;;;;4.18;1.20;;;14.60;99.90;;;;;;5131073;28;20030;-76
2023/04/05 09:43:35;;;;;;;4.03;1.20;;;14.60;99.90;;;;;;5113080;28;20039;-76
2023/04/05 09:46:01;;;;;;;4.90;1.02;;;14.40;99.90;;;;;;5130372;28;20024;-75
2023/04/05 09:48:47;;;;;;;2.28;0.93;;;14.30;99.90;;;;;;5131493;28;20027;-76
2023/04/05 09:51:17;;;;;;;3.33;1.23;;;14.30;99.90;;;;;;5095265;28;20039;-75
2023/04/05 09:54:06;;;;;;;4.25;1.23;;;14.30;99.90;;;;;;5130544;28;20466;-76
2023/04/05 09:56:40;;;;;;;16.42;2.22;;;14.20;99.90;;;;;;5131082;28;20106;-76
2023/04/05 09:59:09;;;;;;;7.25;1.88;;;14.20;99.90;;;;;;5130389;28;20091;-76
2023/04/05 10:01:35;;;;;;;9.55;1.60;;;14.30;99.90;;;;;;5131073;28;20031;-76
2023/04/05 10:04:02;;;;;;;3.38;1.55;;;14.30;99.90;;;;;;5130304;28;20038;-76
2023/04/05 10:06:38;;;;;;;2.53;1.10;;;14.30;99.90;;;;;;5130606;28;20118;-76
2023/04/05 10:09:05;;;;;;;3.67;1.23;;;14.30;99.90;;;;;;5130555;28;20110;-76
2023/04/05 10:11:36;;;;;;;2.50;0.85;;;14.40;99.90;;;;;;5130789;28;20106;-76
2023/04/05 10:14:04;;;;;;;4.15;1.50;;;14.50;99.90;;;;;;5111632;28;20372;-76
2023/04/05 10:16:36;;;;;;;8.35;1.10;;;14.60;99.90;;;;;;5129857;28;20102;-76
2023/04/05 10:19:07;;;;;;;3.80;1.27;;;14.70;99.90;;;;;;5130131;28;20572;-77
2023/04/05 10:21:40;;;;;;;2.60;0.70;;;14.70;99.90;;;;;;5131526;28;20119;-76
2023/04/05 10:24:14;;;;;;;2.55;0.82;;;14.80;99.90;;;;;;5128875;28;20043;-77
2023/04/05 10:26:51;;;;;;;6.15;1.30;;;14.80;99.90;;;;;;5129980;28;20063;-76
2023/04/05 10:29:27;;;;;;;3.25;1.10;;;14.90;99.90;;;;;;5111219;28;20150;-76
2023/04/05 10:32:18;;;;;;;2.92;1.08;;;14.90;99.90;;;;;;5130006;28;20076;-75
2023/04/05 10:35:12;;;;;;;5.78;1.73;;;15.10;99.90;;;;;;5129818;28;20750;-76
2023/04/05 10:38:08;;;;;;;3.53;1.20;;;15.20;99.90;;;;;;5126534;28;20403;-77
2023/04/05 10:40:35;;;;;;;5.10;1.13;;;15.30;99.90;;;;;;5129983;28;20019;-76
2023/04/05 10:43:05;;;;;;;2.67;1.30;;;15.30;99.90;;;;;;5129230;28;20023;-76
2023/04/05 10:45:32;;;;;;;3.75;1.35;;;15.40;99.90;;;;;;5131080;27;20030;-76
2023/04/05 10:48:20;;;;;;;2.85;1.23;;;15.50;99.90;;;;;;5133111;27;20027;-79
2023/04/05 10:50:47;;;;;;;2.95;1.17;;;15.50;99.90;;;;;;5134100;27;20061;-75
2023/04/05 10:53:14;;;;;;;3.80;1.40;;;15.60;99.90;;;;;;5133239;27;20031;-76
2023/04/05 10:55:42;;;;;;;2.58;1.08;;;15.60;99.90;;;;;;5133500;27;20467;-76
2023/04/05 10:58:09;;;;;;;2.38;1.25;;;15.70;99.90;;;;;;5132950;27;20067;-77
2023/04/05 11:00:35;;;;;;;3.30;1.58;;;15.60;99.90;;;;;;5133276;27;20110;-76
2023/04/05 11:03:01;;;;;;;3.30;1.23;;;15.70;99.90;;;;;;5132985;27;20090;-76
2023/04/05 11:05:34;;;;;;;2.97;1.20;;;15.80;99.90;;;;;;5133633;27;20020;-75
2023/04/05 11:08:08;;;;;;;3.13;1.40;;;15.80;99.90;;;;;;5133457;27;20367;-76
2023/04/05 11:10:36;;;;;;;4.45;1.52;;;15.90;99.90;;;;;;5134003;27;20095;-75
2023/04/05 11:13:03;;;;;;;5.53;1.40;;;15.90;99.90;;;;;;5115215;27;20084;-75
2023/04/05 11:15:33;;;;;;;3.65;1.13;;;16.00;99.90;;;;;;5133597;27;20341;-75
2023/04/05 11:18:11;;;;;;;4.95;1.67;;;16.10;99.90;;;;;;5133840;27;20075;-79
2023/04/05 11:20:50;;;;;;;3.90;1.40;;;16.20;99.90;;;;;;5134591;27;20055;-76
2023/04/05 11:23:18;;;;;;;3.85;1.13;;;16.30;99.90;;;;;;5115006;27;20069;-76
2023/04/05 11:26:07;;;;;;;3.72;1.20;;;16.30;99.90;;;;;;5134047;27;20038;-76
2023/04/05 11:28:40;;;;;;;1.75;1.00;;;16.40;99.90;;;;;;5102231;27;20035;-76
2023/04/05 11:31:18;;;;;;;3.83;1.35;;;16.50;99.90;;;;;;5134132;27;20491;-76
2023/04/05 11:33:44;;;;;;;4.47;0.98;;;16.40;99.90;;;;;;5133506;27;20432;-76
2023/04/05 11:36:11;;;;;;;5.75;1.60;;;16.30;99.90;;;;;;5133006;27;20070;-76
2023/04/05 11:38:39;;;;;;;6.75;1.50;;;16.10;99.90;;;;;;5133235;27;20061;-76
2023/04/05 11:41:11;;;;;;;2.72;1.35;;;16.10;99.90;;;;;;5132575;27;20023;-76
2023/04/05 11:43:37;;;;;;;4.35;1.33;;;16.00;99.90;;;;;;5133234;27;20031;-76
2023/04/05 11:46:06;;;;;;;5.28;1.52;;;16.00;99.90;;;;;;5132739;27;20083;-78
2023/04/05 11:48:33;;;;;;;1.35;0.90;;;16.00;99.90;;;;;;5132782;27;20352;-76
2023/04/05 11:50:59;;;;;;;4.15;1.50;;;16.00;99.90;;;;;;5132792;27;20445;-79
2023/04/05 11:53:25;;;;;;;3.47;1.55;;;16.00;99.90;;;;;;5132432;27;20023;-76
2023/04/05 11:55:51;;;;;;;6.20;1.80;;;15.90;99.90;;;;;;5132059;27;20525;-77
2023/04/05 11:58:22;;;;;;;3.55;1.42;;;15.80;99.90;;;;;;5113678;27;20031;-77
2023/04/05 12:01:07;;;;;;;4.78;1.35;;;15.70;99.90;;;;;;5132965;27;20535;-77
2023/04/05 12:03:34;;;;;;;3.22;1.20;;;15.60;99.90;;;;;;5132777;27;20027;-76
2023/04/05 12:06:01;;;;;;;2.75;1.27;;;15.50;99.90;;;;;;5113898;27;20024;-78
2023/04/05 12:08:51;;;;;;;2.97;1.10;;;15.60;99.90;;;;;;5132533;27;20153;-76
2023/04/05 12:11:24;;;;;;;2.92;1.35;;;15.50;99.90;;;;;;5133087;27;20023;-75
2023/04/05 12:13:58;;;;;;;1.73;1.05;;;15.50;99.90;;;;;;5133537;27;20035;-75
2023/04/05 12:16:24;;;;;;;2.80;1.50;;;15.50;99.90;;;;;;5133029;27;20138;-76
2023/04/05 12:18:57;;;;;;;2.95;1.00;;;15.50;99.90;;;;;;5133627;27;20064;-76
2023/04/05 12:21:25;;;;;;;3.25;1.10;;;15.60;99.90;;;;;;5132884;27;20253;-76
2023/04/05 12:23:51;;;;;;;2.72;1.20;;;15.60;99.90;;;;;;5133785;27;20134;-75
2023/04/05 12:26:18;;;;;;;3.53;1.23;;;15.60;99.90;;;;;;5132670;27;20383;-76
2023/04/05 12:28:53;;;;;;;3.70;1.25;;;15.60;99.90;;;;;;5133197;27;20448;-76
2023/04/05 12:31:41;;;;;;;3.47;1.40;;;15.60;99.90;;;;;;5132997;27;20045;-75
2023/04/05 12:34:08;;;;;;;2.30;1.10;;;15.50;99.90;;;;;;5132326;27;20038;-76
2023/04/05 12:36:34;;;;;;;2.63;1.10;;;15.60;99.90;;;;;;5133246;27;20421;-76
2023/04/05 12:39:04;;;;;;;4.18;1.45;;;15.60;99.90;;;;;;5114395;27;20471;-76
2023/04/05 12:41:31;;;;;;;2.40;0.98;;;15.60;99.90;;;;;;5113929;27;20024;-76
2023/04/05 12:44:00;;;;;;;4.38;1.40;;;15.60;99.90;;;;;;5132533;27;20113;-75
2023/04/05 12:46:39;;;;;;;3.10;1.20;;;15.70;99.90;;;;;;5114064;27;20034;-76
2023/04/05 12:49:05;;;;;;;5.30;1.60;;;15.70;99.90;;;;;;5131901;27;20487;-79
2023/04/05 12:51:31;;;;;;;3.20;1.08;;;15.80;99.90;;;;;;5132327;27;20031;-76
2023/04/05 12:54:00;;;;;;;5.30;1.35;;;15.90;99.90;;;;;;5132516;27;20132;-75
2023/04/05 12:56:29;;;;;;;5.90;1.38;;;15.90;99.90;;;;;;5131843;27;20019;-76